sensor_id;sensor_type;location;lat;lon;timestamp;temperature;humidity
25914;DHT22;13718;50.922;5.346;2022-12-18T00:00:30;-4.60;99.90
25914;DHT22;13718;50.922;5.346;2022-12-18T00:02:55;-4.70;99.90
25914;DHT22;13718;50.922;5.346;2022-12-18T00:05:21;-4.80;99.90
25914;DHT22;13718;50.922;5.346;2022-12-18T00:07:47;-4.80;99.90
25914;DHT22;13718;50.922;5.346;2022-12-18T00:10:12;-4.90;99.90
25914;DHT22;13718;50.922;5.346;2022-12-18T00:12:38;-4.90;99.90
25914;DHT22;13718;50.922;5.346;2022-12-18T00:15:04;-4.80;99.90
25914;DHT22;13718;50.922;5.346;2022-12-18T00:17:29;-4.80;99.90
25914;DHT22;13718;50.922;5.346;2022-12-18T00:19:55;-4.90;99.90
25914;DHT22;13718;50.922;5.346;2022-12-18T00:22:21;-4.80;99.90
25914;DHT22;13718;50.922;5.346;2022-12-18T00:24:46;-4.60;99.90
25914;DHT22;13718;50.922;5.346;2022-12-18T00:27:12;-4.40;99.90
25914;DHT22;13718;50.922;5.346;2022-12-18T00:29:40;-4.20;99.90
25914;DHT22;13718;50.922;5.346;2022-12-18T00:32:06;-4.20;99.90
25914;DHT22;13718;50.922;5.346;2022-12-18T00:34:32;-4.10;99.90
25914;DHT22;13718;50.922;5.346;2022-12-18T00:36:57;-4.30;99.90
25914;DHT22;13718;50.922;5.346;2022-12-18T00:39:23;-4.50;99.90
25914;DHT22;13718;50.922;5.346;2022-12-18T00:41:48;-4.60;99.90
25914;DHT22;13718;50.922;5.346;2022-12-18T00:44:32;-4.70;99.90
25914;DHT22;13718;50.922;5.346;2022-12-18T00:46:58;-4.80;99.90
25914;DHT22;13718;50.922;5.346;2022-12-18T00:49:24;-4.90;99.90
25914;DHT22;13718;50.922;5.346;2022-12-18T00:51:49;-5.00;99.90
25914;DHT22;13718;50.922;5.346;2022-12-18T00:54:16;-5.00;99.90
25914;DHT22;13718;50.922;5.346;2022-12-18T00:56:42;-5.00;99.90
25914;DHT22;13718;50.922;5.346;2022-12-18T00:59:07;-5.00;99.90
25914;DHT22;13718;50.922;5.346;2022-12-18T01:01:33;-5.00;99.90
25914;DHT22;13718;50.922;5.346;2022-12-18T01:04:01;-5.00;99.90
25914;DHT22;13718;50.922;5.346;2022-12-18T01:06:27;-5.00;99.90
25914;DHT22;13718;50.922;5.346;2022-12-18T01:08:52;-4.90;99.90
25914;DHT22;13718;50.922;5.346;2022-12-18T01:11:19;-4.70;99.90
25914;DHT22;13718;50.922;5.346;2022-12-18T01:13:46;-4.70;99.90
25914;DHT22;13718;50.922;5.346;2022-12-18T01:16:16;-4.70;99.90
25914;DHT22;13718;50.922;5.346;2022-12-18T01:18:42;-4.90;99.90
25914;DHT22;13718;50.922;5.346;2022-12-18T01:21:10;-5.00;99.90
25914;DHT22;13718;50.922;5.346;2022-12-18T01:23:37;-5.10;99.90
25914;DHT22;13718;50.922;5.346;2022-12-18T01:26:11;-5.10;99.90
25914;DHT22;13718;50.922;5.346;2022-12-18T01:28:37;-5.20;99.90
25914;DHT22;13718;50.922;5.346;2022-12-18T01:31:13;-5.10;99.90
25914;DHT22;13718;50.922;5.346;2022-12-18T01:33:40;-5.00;99.90
25914;DHT22;13718;50.922;5.346;2022-12-18T01:36:06;-5.00;99.90
25914;DHT22;13718;50.922;5.346;2022-12-18T01:38:32;-5.10;99.90
25914;DHT22;13718;50.922;5.346;2022-12-18T01:41:01;-5.00;99.90
25914;DHT22;13718;50.922;5.346;2022-12-18T01:46:13;-5.10;99.90
25914;DHT22;13718;50.922;5.346;2022-12-18T01:48:39;-5.10;99.90
25914;DHT22;13718;50.922;5.346;2022-12-18T01:51:07;-5.10;99.90
25914;DHT22;13718;50.922;5.346;2022-12-18T01:53:34;-5.00;99.90
25914;DHT22;13718;50.922;5.346;2022-12-18T01:55:59;-4.80;99.90
25914;DHT22;13718;50.922;5.346;2022-12-18T02:01:15;-5.00;99.90
25914;DHT22;13718;50.922;5.346;2022-12-18T02:03:43;-5.20;99.90
25914;DHT22;13718;50.922;5.346;2022-12-18T02:08:40;-5.20;99.90
25914;DHT22;13718;50.922;5.346;2022-12-18T02:14:08;-5.30;99.90
25914;DHT22;13718;50.922;5.346;2022-12-18T02:16:47;-5.30;99.90
25914;DHT22;13718;50.922;5.346;2022-12-18T02:24:53;-5.30;99.90
25914;DHT22;13718;50.922;5.346;2022-12-18T02:27:19;-5.40;99.90
25914;DHT22;13718;50.922;5.346;2022-12-18T02:29:51;-5.30;99.90
25914;DHT22;13718;50.922;5.346;2022-12-18T02:32:22;-5.30;99.90
25914;DHT22;13718;50.922;5.346;2022-12-18T02:34:51;-5.30;99.90
25914;DHT22;13718;50.922;5.346;2022-12-18T02:37:18;-5.30;99.90
25914;DHT22;13718;50.922;5.346;2022-12-18T02:39:47;-5.30;99.90
25914;DHT22;13718;50.922;5.346;2022-12-18T02:42:14;-5.20;99.90
25914;DHT22;13718;50.922;5.346;2022-12-18T02:44:45;-5.20;99.90
25914;DHT22;13718;50.922;5.346;2022-12-18T02:47:18;-5.20;99.90
25914;DHT22;13718;50.922;5.346;2022-12-18T03:00:02;-5.20;99.90
25914;DHT22;13718;50.922;5.346;2022-12-18T03:05:10;-5.40;99.90
25914;DHT22;13718;50.922;5.346;2022-12-18T03:07:46;-5.40;99.90
25914;DHT22;13718;50.922;5.346;2022-12-18T03:10:16;-5.20;99.90
25914;DHT22;13718;50.922;5.346;2022-12-18T03:12:47;-5.10;99.90
25914;DHT22;13718;50.922;5.346;2022-12-18T03:15:23;-5.10;99.90
25914;DHT22;13718;50.922;5.346;2022-12-18T03:18:04;-5.00;99.90
25914;DHT22;13718;50.922;5.346;2022-12-18T03:20:34;-5.20;99.90
25914;DHT22;13718;50.922;5.346;2022-12-18T03:23:09;-5.40;99.90
25914;DHT22;13718;50.922;5.346;2022-12-18T03:25:37;-5.50;99.90
25914;DHT22;13718;50.922;5.346;2022-12-18T03:28:06;-5.50;99.90
25914;DHT22;13718;50.922;5.346;2022-12-18T03:30:37;-5.60;99.90
25914;DHT22;13718;50.922;5.346;2022-12-18T03:33:11;-5.60;99.90
25914;DHT22;13718;50.922;5.346;2022-12-18T03:35:40;-5.60;99.90
25914;DHT22;13718;50.922;5.346;2022-12-18T03:38:07;-5.60;99.90
25914;DHT22;13718;50.922;5.346;2022-12-18T03:43:34;-5.70;99.90
25914;DHT22;13718;50.922;5.346;2022-12-18T03:46:25;-5.70;99.90
25914;DHT22;13718;50.922;5.346;2022-12-18T03:48:59;-5.70;99.90
25914;DHT22;13718;50.922;5.346;2022-12-18T03:53:59;-5.70;99.90
25914;DHT22;13718;50.922;5.346;2022-12-18T03:56:29;-5.70;99.90
25914;DHT22;13718;50.922;5.346;2022-12-18T03:58:56;-5.60;99.90
25914;DHT22;13718;50.922;5.346;2022-12-18T04:01:33;-5.60;99.90
25914;DHT22;13718;50.922;5.346;2022-12-18T04:04:01;-5.70;99.90
25914;DHT22;13718;50.922;5.346;2022-12-18T04:06:28;-5.70;99.90
25914;DHT22;13718;50.922;5.346;2022-12-18T04:08:57;-5.80;99.90
25914;DHT22;13718;50.922;5.346;2022-12-18T04:11:23;-5.90;99.90
25914;DHT22;13718;50.922;5.346;2022-12-18T04:13:48;-5.90;99.90
25914;DHT22;13718;50.922;5.346;2022-12-18T04:16:14;-6.00;99.90
25914;DHT22;13718;50.922;5.346;2022-12-18T04:18:40;-6.00;99.90
25914;DHT22;13718;50.922;5.346;2022-12-18T04:21:05;-6.10;99.90
25914;DHT22;13718;50.922;5.346;2022-12-18T04:23:31;-6.10;99.90
25914;DHT22;13718;50.922;5.346;2022-12-18T04:25:56;-6.10;99.90
25914;DHT22;13718;50.922;5.346;2022-12-18T04:28:22;-6.10;99.90
25914;DHT22;13718;50.922;5.346;2022-12-18T04:30:48;-6.10;99.90
25914;DHT22;13718;50.922;5.346;2022-12-18T04:33:13;-6.10;99.90
25914;DHT22;13718;50.922;5.346;2022-12-18T04:35:42;-6.10;99.90
25914;DHT22;13718;50.922;5.346;2022-12-18T04:38:09;-6.20;99.90
25914;DHT22;13718;50.922;5.346;2022-12-18T04:40:36;-6.20;99.90
25914;DHT22;13718;50.922;5.346;2022-12-18T04:43:02;-6.10;99.90
25914;DHT22;13718;50.922;5.346;2022-12-18T04:45:28;-6.10;99.90
25914;DHT22;13718;50.922;5.346;2022-12-18T04:47:57;-6.10;99.90
25914;DHT22;13718;50.922;5.346;2022-12-18T04:50:23;-6.20;99.90
25914;DHT22;13718;50.922;5.346;2022-12-18T04:52:48;-6.10;99.90
25914;DHT22;13718;50.922;5.346;2022-12-18T04:55:14;-6.10;99.90
25914;DHT22;13718;50.922;5.346;2022-12-18T04:57:40;-6.00;99.90
25914;DHT22;13718;50.922;5.346;2022-12-18T05:00:06;-6.00;99.90
25914;DHT22;13718;50.922;5.346;2022-12-18T05:02:32;-6.00;99.90
25914;DHT22;13718;50.922;5.346;2022-12-18T05:04:58;-6.00;99.90
25914;DHT22;13718;50.922;5.346;2022-12-18T05:07:23;-6.00;99.90
25914;DHT22;13718;50.922;5.346;2022-12-18T05:09:49;-5.80;99.90
25914;DHT22;13718;50.922;5.346;2022-12-18T05:12:14;-5.70;99.90
25914;DHT22;13718;50.922;5.346;2022-12-18T05:14:40;-5.80;99.90
25914;DHT22;13718;50.922;5.346;2022-12-18T05:17:06;-5.90;99.90
25914;DHT22;13718;50.922;5.346;2022-12-18T05:19:31;-6.10;99.90
25914;DHT22;13718;50.922;5.346;2022-12-18T05:21:57;-6.00;99.90
25914;DHT22;13718;50.922;5.346;2022-12-18T05:24:23;-6.00;99.90
25914;DHT22;13718;50.922;5.346;2022-12-18T05:26:49;-6.10;99.90
25914;DHT22;13718;50.922;5.346;2022-12-18T05:29:14;-6.10;99.90
25914;DHT22;13718;50.922;5.346;2022-12-18T05:31:40;-6.10;99.90
25914;DHT22;13718;50.922;5.346;2022-12-18T05:34:06;-6.10;99.90
25914;DHT22;13718;50.922;5.346;2022-12-18T05:36:32;-6.20;99.90
25914;DHT22;13718;50.922;5.346;2022-12-18T05:38:57;-6.20;99.90
25914;DHT22;13718;50.922;5.346;2022-12-18T05:41:23;-6.20;99.90
25914;DHT22;13718;50.922;5.346;2022-12-18T05:43:48;-6.20;99.90
25914;DHT22;13718;50.922;5.346;2022-12-18T05:46:16;-6.10;99.90
25914;DHT22;13718;50.922;5.346;2022-12-18T05:48:43;-6.10;99.90
25914;DHT22;13718;50.922;5.346;2022-12-18T05:51:14;-6.10;99.90
25914;DHT22;13718;50.922;5.346;2022-12-18T05:53:41;-6.20;99.90
25914;DHT22;13718;50.922;5.346;2022-12-18T05:56:10;-6.20;99.90
25914;DHT22;13718;50.922;5.346;2022-12-18T05:58:37;-6.30;99.90
25914;DHT22;13718;50.922;5.346;2022-12-18T06:01:17;-6.30;99.90
25914;DHT22;13718;50.922;5.346;2022-12-18T06:03:43;-6.10;99.90
25914;DHT22;13718;50.922;5.346;2022-12-18T06:06:20;-6.10;99.90
25914;DHT22;13718;50.922;5.346;2022-12-18T06:08:48;-6.10;99.90
25914;DHT22;13718;50.922;5.346;2022-12-18T06:11:17;-6.20;99.90
25914;DHT22;13718;50.922;5.346;2022-12-18T06:13:43;-6.20;99.90
25914;DHT22;13718;50.922;5.346;2022-12-18T06:16:09;-6.20;99.90
25914;DHT22;13718;50.922;5.346;2022-12-18T06:18:34;-6.20;99.90
25914;DHT22;13718;50.922;5.346;2022-12-18T06:21:03;-6.20;99.90
25914;DHT22;13718;50.922;5.346;2022-12-18T06:23:28;-6.10;99.90
25914;DHT22;13718;50.922;5.346;2022-12-18T06:25:54;-6.00;99.90
25914;DHT22;13718;50.922;5.346;2022-12-18T06:28:20;-5.80;99.90
25914;DHT22;13718;50.922;5.346;2022-12-18T06:30:47;-5.70;99.90
25914;DHT22;13718;50.922;5.346;2022-12-18T06:33:14;-5.80;99.90
25914;DHT22;13718;50.922;5.346;2022-12-18T06:35:40;-6.00;99.90
25914;DHT22;13718;50.922;5.346;2022-12-18T06:38:06;-6.00;99.90
25914;DHT22;13718;50.922;5.346;2022-12-18T06:40:32;-6.00;99.90
25914;DHT22;13718;50.922;5.346;2022-12-18T06:42:58;-6.10;99.90
25914;DHT22;13718;50.922;5.346;2022-12-18T06:45:23;-6.00;99.90
25914;DHT22;13718;50.922;5.346;2022-12-18T06:47:49;-6.10;99.90
25914;DHT22;13718;50.922;5.346;2022-12-18T06:50:16;-6.00;99.90
25914;DHT22;13718;50.922;5.346;2022-12-18T06:52:41;-5.70;99.90
25914;DHT22;13718;50.922;5.346;2022-12-18T06:55:09;-5.60;99.90
25914;DHT22;13718;50.922;5.346;2022-12-18T06:57:35;-5.80;99.90
25914;DHT22;13718;50.922;5.346;2022-12-18T07:00:01;-6.00;99.90
25914;DHT22;13718;50.922;5.346;2022-12-18T07:02:26;-6.00;99.90
25914;DHT22;13718;50.922;5.346;2022-12-18T07:04:52;-6.10;99.90
25914;DHT22;13718;50.922;5.346;2022-12-18T07:07:17;-6.10;99.90
25914;DHT22;13718;50.922;5.346;2022-12-18T07:09:43;-5.90;99.90
25914;DHT22;13718;50.922;5.346;2022-12-18T07:12:09;-5.80;99.90
25914;DHT22;13718;50.922;5.346;2022-12-18T07:14:34;-5.80;99.90
25914;DHT22;13718;50.922;5.346;2022-12-18T07:17:00;-5.80;99.90
25914;DHT22;13718;50.922;5.346;2022-12-18T07:19:26;-5.90;99.90
25914;DHT22;13718;50.922;5.346;2022-12-18T07:21:51;-5.70;99.90
25914;DHT22;13718;50.922;5.346;2022-12-18T07:24:17;-5.50;99.90
25914;DHT22;13718;50.922;5.346;2022-12-18T07:26:45;-5.30;99.90
25914;DHT22;13718;50.922;5.346;2022-12-18T07:29:11;-5.20;99.90
25914;DHT22;13718;50.922;5.346;2022-12-18T07:31:37;-5.10;99.90
25914;DHT22;13718;50.922;5.346;2022-12-18T07:34:03;-5.10;99.90
25914;DHT22;13718;50.922;5.346;2022-12-18T07:36:28;-5.20;99.90
25914;DHT22;13718;50.922;5.346;2022-12-18T07:38:54;-5.30;99.90
25914;DHT22;13718;50.922;5.346;2022-12-18T07:41:20;-5.30;99.90
25914;DHT22;13718;50.922;5.346;2022-12-18T07:43:46;-5.30;99.90
25914;DHT22;13718;50.922;5.346;2022-12-18T07:46:13;-5.40;99.90
25914;DHT22;13718;50.922;5.346;2022-12-18T07:48:42;-5.60;99.90
25914;DHT22;13718;50.922;5.346;2022-12-18T07:51:08;-5.50;99.90
25914;DHT22;13718;50.922;5.346;2022-12-18T07:53:38;-5.40;99.90
25914;DHT22;13718;50.922;5.346;2022-12-18T07:56:07;-5.30;99.90
25914;DHT22;13718;50.922;5.346;2022-12-18T07:58:33;-5.30;99.90
25914;DHT22;13718;50.922;5.346;2022-12-18T08:01:10;-5.20;99.90
25914;DHT22;13718;50.922;5.346;2022-12-18T08:03:36;-4.70;99.90
25914;DHT22;13718;50.922;5.346;2022-12-18T08:06:04;-4.10;99.90
25914;DHT22;13718;50.922;5.346;2022-12-18T08:08:30;-4.10;99.90
25914;DHT22;13718;50.922;5.346;2022-12-18T08:10:56;-4.20;99.90
25914;DHT22;13718;50.922;5.346;2022-12-18T08:13:22;-4.20;99.90
25914;DHT22;13718;50.922;5.346;2022-12-18T08:16:07;-4.10;99.90
25914;DHT22;13718;50.922;5.346;2022-12-18T08:18:34;-4.10;99.90
25914;DHT22;13718;50.922;5.346;2022-12-18T08:21:10;-4.20;99.90
25914;DHT22;13718;50.922;5.346;2022-12-18T08:23:36;-4.30;99.90
25914;DHT22;13718;50.922;5.346;2022-12-18T08:26:02;-4.30;99.90
25914;DHT22;13718;50.922;5.346;2022-12-18T08:28:28;-4.40;99.90
25914;DHT22;13718;50.922;5.346;2022-12-18T08:30:53;-4.40;99.90
25914;DHT22;13718;50.922;5.346;2022-12-18T08:33:19;-4.50;99.90
25914;DHT22;13718;50.922;5.346;2022-12-18T08:35:45;-4.50;99.90
25914;DHT22;13718;50.922;5.346;2022-12-18T08:38:10;-4.50;99.90
25914;DHT22;13718;50.922;5.346;2022-12-18T08:40:36;-4.30;99.90
25914;DHT22;13718;50.922;5.346;2022-12-18T08:43:01;-4.20;99.90
25914;DHT22;13718;50.922;5.346;2022-12-18T08:45:46;-4.10;99.90
25914;DHT22;13718;50.922;5.346;2022-12-18T08:48:11;-3.90;99.90
25914;DHT22;13718;50.922;5.346;2022-12-18T08:50:37;-3.80;99.90
25914;DHT22;13718;50.922;5.346;2022-12-18T08:53:03;-3.60;99.90
25914;DHT22;13718;50.922;5.346;2022-12-18T08:55:28;-3.50;99.90
25914;DHT22;13718;50.922;5.346;2022-12-18T08:57:54;-3.40;99.90
25914;DHT22;13718;50.922;5.346;2022-12-18T09:00:20;-3.40;99.90
25914;DHT22;13718;50.922;5.346;2022-12-18T09:02:45;-3.30;99.90
25914;DHT22;13718;50.922;5.346;2022-12-18T09:05:11;-3.10;99.90
25914;DHT22;13718;50.922;5.346;2022-12-18T09:07:37;-3.00;99.90
25914;DHT22;13718;50.922;5.346;2022-12-18T09:10:03;-3.10;99.90
25914;DHT22;13718;50.922;5.346;2022-12-18T09:12:29;-3.10;99.90
25914;DHT22;13718;50.922;5.346;2022-12-18T09:14:54;-3.00;99.90
25914;DHT22;13718;50.922;5.346;2022-12-18T09:17:21;-2.90;99.90
25914;DHT22;13718;50.922;5.346;2022-12-18T09:19:47;-2.70;99.90
25914;DHT22;13718;50.922;5.346;2022-12-18T09:22:13;-2.40;99.90
25914;DHT22;13718;50.922;5.346;2022-12-18T09:24:38;-2.40;99.90
25914;DHT22;13718;50.922;5.346;2022-12-18T09:27:04;-2.30;99.90
25914;DHT22;13718;50.922;5.346;2022-12-18T09:29:30;-2.30;99.90
25914;DHT22;13718;50.922;5.346;2022-12-18T09:31:55;-2.40;99.90
25914;DHT22;13718;50.922;5.346;2022-12-18T09:34:21;-2.40;99.90
25914;DHT22;13718;50.922;5.346;2022-12-18T09:36:47;-2.40;99.90
25914;DHT22;13718;50.922;5.346;2022-12-18T09:39:13;-2.40;99.90
25914;DHT22;13718;50.922;5.346;2022-12-18T09:41:54;-2.20;99.90
25914;DHT22;13718;50.922;5.346;2022-12-18T09:44:36;-2.20;99.90
25914;DHT22;13718;50.922;5.346;2022-12-18T09:47:13;-2.20;99.90
25914;DHT22;13718;50.922;5.346;2022-12-18T09:49:50;-2.20;99.90
25914;DHT22;13718;50.922;5.346;2022-12-18T09:52:21;-2.20;99.90
25914;DHT22;13718;50.922;5.346;2022-12-18T09:57:33;-2.10;99.90
25914;DHT22;13718;50.922;5.346;2022-12-18T10:00:06;-2.00;99.90
25914;DHT22;13718;50.922;5.346;2022-12-18T10:02:34;-2.00;99.90
25914;DHT22;13718;50.922;5.346;2022-12-18T10:05:21;-1.80;99.90
25914;DHT22;13718;50.922;5.346;2022-12-18T10:08:10;-1.50;99.90
25914;DHT22;13718;50.922;5.346;2022-12-18T10:10:43;-1.50;99.90
25914;DHT22;13718;50.922;5.346;2022-12-18T10:16:34;-1.40;99.90
25914;DHT22;13718;50.922;5.346;2022-12-18T10:29:37;-1.00;99.90
25914;DHT22;13718;50.922;5.346;2022-12-18T10:32:03;-0.80;99.90
25914;DHT22;13718;50.922;5.346;2022-12-18T10:34:28;-0.80;99.90
25914;DHT22;13718;50.922;5.346;2022-12-18T10:36:54;-0.80;99.90
25914;DHT22;13718;50.922;5.346;2022-12-18T10:39:22;-0.80;99.90
25914;DHT22;13718;50.922;5.346;2022-12-18T10:41:50;-0.70;99.90
25914;DHT22;13718;50.922;5.346;2022-12-18T10:44:21;-0.50;99.90
25914;DHT22;13718;50.922;5.346;2022-12-18T10:46:49;-0.50;99.90
25914;DHT22;13718;50.922;5.346;2022-12-18T10:49:23;-0.40;99.90
25914;DHT22;13718;50.922;5.346;2022-12-18T10:51:50;-0.40;99.90
25914;DHT22;13718;50.922;5.346;2022-12-18T10:54:22;-0.20;99.90
25914;DHT22;13718;50.922;5.346;2022-12-18T10:56:48;-0.20;99.90
25914;DHT22;13718;50.922;5.346;2022-12-18T10:59:16;0.10;99.90
25914;DHT22;13718;50.922;5.346;2022-12-18T11:01:56;0.10;99.90
25914;DHT22;13718;50.922;5.346;2022-12-18T11:04:30;0.30;99.90
25914;DHT22;13718;50.922;5.346;2022-12-18T11:09:28;0.10;99.90
25914;DHT22;13718;50.922;5.346;2022-12-18T11:11:59;0.00;99.90
25914;DHT22;13718;50.922;5.346;2022-12-18T11:14:43;0.00;99.90
25914;DHT22;13718;50.922;5.346;2022-12-18T11:17:38;0.10;99.90
25914;DHT22;13718;50.922;5.346;2022-12-18T11:20:07;0.20;99.90
25914;DHT22;13718;50.922;5.346;2022-12-18T11:22:58;0.30;99.90
25914;DHT22;13718;50.922;5.346;2022-12-18T11:25:24;0.20;99.90
25914;DHT22;13718;50.922;5.346;2022-12-18T11:28:00;0.30;99.90
25914;DHT22;13718;50.922;5.346;2022-12-18T11:30:35;0.20;99.90
25914;DHT22;13718;50.922;5.346;2022-12-18T11:33:20;0.30;99.90
25914;DHT22;13718;50.922;5.346;2022-12-18T11:38:22;0.60;99.90
25914;DHT22;13718;50.922;5.346;2022-12-18T11:43:58;0.70;99.90
25914;DHT22;13718;50.922;5.346;2022-12-18T11:46:32;0.80;99.90
25914;DHT22;13718;50.922;5.346;2022-12-18T11:49:03;0.90;99.90
25914;DHT22;13718;50.922;5.346;2022-12-18T11:51:41;1.00;99.90
25914;DHT22;13718;50.922;5.346;2022-12-18T11:54:15;1.00;99.90
25914;DHT22;13718;50.922;5.346;2022-12-18T11:57:05;1.10;99.90
25914;DHT22;13718;50.922;5.346;2022-12-18T11:59:55;1.20;99.90
25914;DHT22;13718;50.922;5.346;2022-12-18T12:16:28;1.30;99.90
25914;DHT22;13718;50.922;5.346;2022-12-18T12:32:55;1.80;99.90
25914;DHT22;13718;50.922;5.346;2022-12-18T12:41:01;2.00;99.90
25914;DHT22;13718;50.922;5.346;2022-12-18T12:43:45;1.90;99.90
25914;DHT22;13718;50.922;5.346;2022-12-18T12:46:16;2.10;99.90
25914;DHT22;13718;50.922;5.346;2022-12-18T12:49:31;2.00;99.90
25914;DHT22;13718;50.922;5.346;2022-12-18T12:51:40;1.90;99.90
25914;DHT22;13718;50.922;5.346;2022-12-18T12:54:15;1.80;99.90
25914;DHT22;13718;50.922;5.346;2022-12-18T12:56:48;1.80;99.90
25914;DHT22;13718;50.922;5.346;2022-12-18T12:59:49;1.90;99.90
25914;DHT22;13718;50.922;5.346;2022-12-18T13:07:41;2.20;99.90
25914;DHT22;13718;50.922;5.346;2022-12-18T13:13:05;2.00;99.90
25914;DHT22;13718;50.922;5.346;2022-12-18T13:15:41;2.10;99.90
25914;DHT22;13718;50.922;5.346;2022-12-18T13:21:01;2.30;99.90
25914;DHT22;13718;50.922;5.346;2022-12-18T13:23:33;2.20;99.90
25914;DHT22;13718;50.922;5.346;2022-12-18T13:33:45;2.10;99.90
25914;DHT22;13718;50.922;5.346;2022-12-18T13:41:42;2.40;99.90
25914;DHT22;13718;50.922;5.346;2022-12-18T13:44:57;2.40;99.90
25914;DHT22;13718;50.922;5.346;2022-12-18T13:46:59;2.30;99.90
25914;DHT22;13718;50.922;5.346;2022-12-18T13:49:39;2.20;99.90
25914;DHT22;13718;50.922;5.346;2022-12-18T13:52:21;2.30;99.90
25914;DHT22;13718;50.922;5.346;2022-12-18T13:54:58;2.40;99.90
25914;DHT22;13718;50.922;5.346;2022-12-18T13:59:54;2.30;99.90
25914;DHT22;13718;50.922;5.346;2022-12-18T14:02:27;2.40;99.90
25914;DHT22;13718;50.922;5.346;2022-12-18T14:04:54;2.30;99.90
25914;DHT22;13718;50.922;5.346;2022-12-18T14:07:23;2.30;99.90
25914;DHT22;13718;50.922;5.346;2022-12-18T14:09:59;2.20;99.90
25914;DHT22;13718;50.922;5.346;2022-12-18T14:12:33;2.20;99.90
25914;DHT22;13718;50.922;5.346;2022-12-18T14:15:44;2.10;99.90
25914;DHT22;13718;50.922;5.346;2022-12-18T14:20:47;2.00;99.90
25914;DHT22;13718;50.922;5.346;2022-12-18T14:23:35;2.10;99.90
25914;DHT22;13718;50.922;5.346;2022-12-18T14:26:03;2.00;99.90
25914;DHT22;13718;50.922;5.346;2022-12-18T14:28:29;2.00;99.90
25914;DHT22;13718;50.922;5.346;2022-12-18T14:30:55;1.90;99.90
25914;DHT22;13718;50.922;5.346;2022-12-18T14:33:23;1.90;99.90
25914;DHT22;13718;50.922;5.346;2022-12-18T14:36:01;2.00;99.90
25914;DHT22;13718;50.922;5.346;2022-12-18T14:38:38;2.00;99.90
25914;DHT22;13718;50.922;5.346;2022-12-18T14:41:12;2.10;99.90
25914;DHT22;13718;50.922;5.346;2022-12-18T14:43:40;2.10;99.90
25914;DHT22;13718;50.922;5.346;2022-12-18T14:48:52;2.00;99.90
25914;DHT22;13718;50.922;5.346;2022-12-18T14:51:23;2.00;99.90
25914;DHT22;13718;50.922;5.346;2022-12-18T14:53:55;2.00;99.90
25914;DHT22;13718;50.922;5.346;2022-12-18T14:56:27;2.10;99.90
25914;DHT22;13718;50.922;5.346;2022-12-18T14:58:55;2.00;99.90
25914;DHT22;13718;50.922;5.346;2022-12-18T15:01:36;2.10;99.90
25914;DHT22;13718;50.922;5.346;2022-12-18T15:04:03;2.20;99.90
25914;DHT22;13718;50.922;5.346;2022-12-18T15:06:30;2.30;99.90
25914;DHT22;13718;50.922;5.346;2022-12-18T15:08:58;2.30;99.90
25914;DHT22;13718;50.922;5.346;2022-12-18T15:11:44;2.00;99.90
25914;DHT22;13718;50.922;5.346;2022-12-18T15:14:42;1.80;99.90
25914;DHT22;13718;50.922;5.346;2022-12-18T15:17:17;2.10;99.90
25914;DHT22;13718;50.922;5.346;2022-12-18T15:19:45;2.10;99.90
25914;DHT22;13718;50.922;5.346;2022-12-18T15:22:27;2.00;99.90
25914;DHT22;13718;50.922;5.346;2022-12-18T15:24:55;1.90;99.90
25914;DHT22;13718;50.922;5.346;2022-12-18T15:27:36;1.90;99.90
25914;DHT22;13718;50.922;5.346;2022-12-18T15:32:35;1.80;99.90
25914;DHT22;13718;50.922;5.346;2022-12-18T15:35:08;1.60;99.90
25914;DHT22;13718;50.922;5.346;2022-12-18T15:37:38;1.50;99.90
25914;DHT22;13718;50.922;5.346;2022-12-18T15:40:11;1.50;99.90
25914;DHT22;13718;50.922;5.346;2022-12-18T15:42:37;1.60;99.90
25914;DHT22;13718;50.922;5.346;2022-12-18T15:45:21;1.80;99.90
25914;DHT22;13718;50.922;5.346;2022-12-18T15:47:46;1.70;99.90
25914;DHT22;13718;50.922;5.346;2022-12-18T15:50:12;1.80;99.90
25914;DHT22;13718;50.922;5.346;2022-12-18T15:52:46;1.70;99.90
25914;DHT22;13718;50.922;5.346;2022-12-18T15:55:18;1.50;99.90
25914;DHT22;13718;50.922;5.346;2022-12-18T15:58:04;1.60;99.90
25914;DHT22;13718;50.922;5.346;2022-12-18T16:00:30;1.50;99.90
25914;DHT22;13718;50.922;5.346;2022-12-18T16:02:55;1.50;99.90
25914;DHT22;13718;50.922;5.346;2022-12-18T16:05:22;1.50;99.90
25914;DHT22;13718;50.922;5.346;2022-12-18T16:07:48;1.50;99.90
25914;DHT22;13718;50.922;5.346;2022-12-18T16:10:14;1.50;99.90
25914;DHT22;13718;50.922;5.346;2022-12-18T16:12:41;1.50;99.90
25914;DHT22;13718;50.922;5.346;2022-12-18T16:15:07;1.60;99.90
25914;DHT22;13718;50.922;5.346;2022-12-18T16:17:33;1.70;99.90
25914;DHT22;13718;50.922;5.346;2022-12-18T16:19:58;1.80;99.90
25914;DHT22;13718;50.922;5.346;2022-12-18T16:22:26;1.90;99.90
25914;DHT22;13718;50.922;5.346;2022-12-18T16:24:54;2.00;99.90
25914;DHT22;13718;50.922;5.346;2022-12-18T16:27:20;2.00;99.90
25914;DHT22;13718;50.922;5.346;2022-12-18T16:29:46;2.10;99.90
25914;DHT22;13718;50.922;5.346;2022-12-18T16:32:15;2.20;99.90
25914;DHT22;13718;50.922;5.346;2022-12-18T16:34:41;2.20;99.90
25914;DHT22;13718;50.922;5.346;2022-12-18T16:37:08;2.20;99.90
25914;DHT22;13718;50.922;5.346;2022-12-18T16:39:36;2.20;99.90
25914;DHT22;13718;50.922;5.346;2022-12-18T16:42:04;2.10;99.90
25914;DHT22;13718;50.922;5.346;2022-12-18T16:44:30;2.10;99.90
25914;DHT22;13718;50.922;5.346;2022-12-18T16:46:55;2.10;99.90
25914;DHT22;13718;50.922;5.346;2022-12-18T16:49:27;2.00;99.90
25914;DHT22;13718;50.922;5.346;2022-12-18T16:51:53;2.00;99.90
25914;DHT22;13718;50.922;5.346;2022-12-18T16:54:19;2.10;99.90
25914;DHT22;13718;50.922;5.346;2022-12-18T16:56:45;2.10;99.90
25914;DHT22;13718;50.922;5.346;2022-12-18T16:59:14;2.00;99.90
25914;DHT22;13718;50.922;5.346;2022-12-18T17:01:40;2.00;99.90
25914;DHT22;13718;50.922;5.346;2022-12-18T17:04:07;2.10;99.90
25914;DHT22;13718;50.922;5.346;2022-12-18T17:06:34;2.10;99.90
25914;DHT22;13718;50.922;5.346;2022-12-18T17:09:04;2.10;99.90
25914;DHT22;13718;50.922;5.346;2022-12-18T17:11:32;2.20;99.90
25914;DHT22;13718;50.922;5.346;2022-12-18T17:13:58;2.20;99.90
25914;DHT22;13718;50.922;5.346;2022-12-18T17:16:24;2.20;99.90
25914;DHT22;13718;50.922;5.346;2022-12-18T17:18:52;2.20;99.90
25914;DHT22;13718;50.922;5.346;2022-12-18T17:21:18;2.20;99.90
25914;DHT22;13718;50.922;5.346;2022-12-18T17:23:44;2.10;99.90
25914;DHT22;13718;50.922;5.346;2022-12-18T17:26:11;2.00;99.90
25914;DHT22;13718;50.922;5.346;2022-12-18T17:28:38;2.00;99.90
25914;DHT22;13718;50.922;5.346;2022-12-18T17:31:17;2.00;99.90
25914;DHT22;13718;50.922;5.346;2022-12-18T17:33:43;2.10;99.90
25914;DHT22;13718;50.922;5.346;2022-12-18T17:36:10;2.10;99.90
25914;DHT22;13718;50.922;5.346;2022-12-18T17:38:36;2.10;99.90
25914;DHT22;13718;50.922;5.346;2022-12-18T17:41:03;2.10;99.90
25914;DHT22;13718;50.922;5.346;2022-12-18T17:43:29;2.10;99.90
25914;DHT22;13718;50.922;5.346;2022-12-18T17:45:55;2.20;99.90
25914;DHT22;13718;50.922;5.346;2022-12-18T17:48:21;2.30;99.90
25914;DHT22;13718;50.922;5.346;2022-12-18T17:50:47;2.30;99.90
25914;DHT22;13718;50.922;5.346;2022-12-18T17:53:13;2.30;99.90
25914;DHT22;13718;50.922;5.346;2022-12-18T17:55:38;2.20;99.90
25914;DHT22;13718;50.922;5.346;2022-12-18T17:58:04;2.20;99.90